createdAt,value
2017-10-17T00:00:06.993Z,0
2017-10-17T00:00:47.548Z,0
2017-10-17T00:01:28.059Z,0
2017-10-17T00:02:08.621Z,0
2017-10-17T00:02:49.194Z,0
2017-10-17T00:03:29.805Z,0
2017-10-17T00:04:10.480Z,0
2017-10-17T00:04:51.010Z,0
2017-10-17T00:05:31.614Z,0
2017-10-17T00:06:12.166Z,0
2017-10-17T00:06:52.708Z,0
2017-10-17T00:07:33.279Z,0
2017-10-17T00:08:13.809Z,0
2017-10-17T00:08:54.420Z,0
2017-10-17T00:09:34.964Z,0
2017-10-17T00:10:15.513Z,0
2017-10-17T00:10:56.022Z,0
2017-10-17T00:11:36.572Z,0
2017-10-17T00:12:17.151Z,0
2017-10-17T00:12:57.681Z,0
2017-10-17T00:13:38.205Z,0
2017-10-17T00:14:18.792Z,0
2017-10-17T00:14:59.336Z,0
2017-10-17T00:15:39.902Z,0
2017-10-17T00:16:20.486Z,0
2017-10-17T00:17:01.015Z,0
2017-10-17T00:17:41.534Z,0
2017-10-17T00:18:22.090Z,0
2017-10-17T00:19:02.639Z,0
2017-10-17T00:19:43.152Z,0
2017-10-17T00:20:23.699Z,0
2017-10-17T00:21:04.285Z,0
2017-10-17T00:21:44.930Z,0
2017-10-17T00:22:25.448Z,0
2017-10-17T00:23:06.042Z,0
2017-10-17T00:23:46.781Z,0
2017-10-17T00:24:27.327Z,0
2017-10-17T00:25:07.865Z,0
2017-10-17T00:25:48.419Z,0
2017-10-17T00:26:28.968Z,0
2017-10-17T00:27:09.517Z,0
2017-10-17T00:27:50.022Z,0
2017-10-17T00:28:30.606Z,0
2017-10-17T00:29:11.325Z,0
2017-10-17T00:29:51.928Z,0
2017-10-17T00:30:32.492Z,0
2017-10-17T00:31:13.003Z,0
2017-10-17T00:31:53.605Z,0
2017-10-17T00:32:34.060Z,0
2017-10-17T00:33:14.667Z,0
2017-10-17T00:33:55.225Z,0
2017-10-17T00:34:35.789Z,0
2017-10-17T00:35:16.567Z,0
2017-10-17T00:35:57.187Z,0
2017-10-17T00:36:37.723Z,0
2017-10-17T00:37:18.229Z,0
2017-10-17T00:37:58.757Z,0
2017-10-17T00:38:39.321Z,0
2017-10-17T00:39:19.866Z,0
2017-10-17T00:40:00.426Z,0
2017-10-17T00:40:40.982Z,0
2017-10-17T00:41:21.662Z,0
2017-10-17T00:42:02.240Z,0
2017-10-17T00:42:42.761Z,0
2017-10-17T00:43:23.338Z,0
2017-10-17T00:44:03.881Z,0
2017-10-17T00:44:44.502Z,0
2017-10-17T00:45:25.008Z,0
2017-10-17T00:46:05.540Z,0
2017-10-17T00:46:46.079Z,0
2017-10-17T00:47:26.624Z,0
2017-10-17T00:48:07.175Z,0
2017-10-17T00:48:47.740Z,0
2017-10-17T00:49:28.300Z,0
2017-10-17T00:50:08.787Z,0
2017-10-17T00:50:49.367Z,0
2017-10-17T00:51:29.904Z,0
2017-10-17T00:52:10.444Z,0
2017-10-17T00:52:50.972Z,0
2017-10-17T00:53:31.565Z,0
2017-10-17T00:54:12.150Z,0
2017-10-17T00:54:52.692Z,0
2017-10-17T00:55:33.401Z,0
2017-10-17T00:56:13.941Z,0
2017-10-17T00:56:54.561Z,0
2017-10-17T00:57:35.100Z,0
2017-10-17T00:58:16.177Z,0
2017-10-17T00:58:56.725Z,0
2017-10-17T00:59:37.222Z,0
2017-10-17T01:00:17.760Z,0
2017-10-17T01:00:58.336Z,0
2017-10-17T01:01:38.892Z,0
2017-10-17T01:02:19.448Z,0
2017-10-17T01:03:00.024Z,0
2017-10-17T01:03:40.560Z,0
2017-10-17T01:04:21.040Z,0
2017-10-17T01:05:01.592Z,0
2017-10-17T01:05:42.129Z,0
2017-10-17T01:06:22.842Z,0
2017-10-17T01:07:03.246Z,0
2017-10-17T01:07:43.782Z,0
2017-10-17T01:08:24.330Z,0
2017-10-17T01:09:04.877Z,0
2017-10-17T01:09:45.451Z,0
2017-10-17T01:10:26.032Z,0
2017-10-17T01:11:06.545Z,0
2017-10-17T01:11:47.127Z,0
2017-10-17T01:12:27.667Z,0
2017-10-17T01:13:08.223Z,0
2017-10-17T01:13:48.818Z,0
2017-10-17T01:14:29.330Z,0
2017-10-17T01:15:09.873Z,0
2017-10-17T01:15:50.462Z,0
2017-10-17T01:16:30.994Z,0
2017-10-17T01:17:11.564Z,0
2017-10-17T01:17:52.099Z,0
2017-10-17T01:18:32.621Z,0
2017-10-17T01:19:13.812Z,0
2017-10-17T01:19:53.838Z,0
2017-10-17T01:20:34.369Z,0
2017-10-17T01:21:14.886Z,0
2017-10-17T01:21:55.470Z,0
2017-10-17T01:22:36.023Z,0
2017-10-17T01:23:16.575Z,0
2017-10-17T01:23:57.114Z,0
2017-10-17T01:24:38.218Z,0
2017-10-17T01:25:18.834Z,0
2017-10-17T01:25:59.462Z,0
2017-10-17T01:26:40.019Z,0
2017-10-17T01:27:20.515Z,0
2017-10-17T01:28:01.071Z,0
2017-10-17T01:28:41.591Z,0
2017-10-17T01:29:22.154Z,0
2017-10-17T01:30:02.690Z,0
2017-10-17T01:30:43.218Z,0
2017-10-17T01:31:23.730Z,0
2017-10-17T01:32:04.345Z,0
2017-10-17T01:32:44.848Z,0
2017-10-17T01:33:25.439Z,0
2017-10-17T01:34:06.248Z,0
2017-10-17T01:34:46.742Z,0
2017-10-17T01:35:27.304Z,0
2017-10-17T01:36:07.858Z,0
2017-10-17T01:36:48.476Z,0
2017-10-17T01:37:28.938Z,0
2017-10-17T01:38:09.498Z,0
2017-10-17T01:38:50.065Z,0
2017-10-17T01:39:30.551Z,0
2017-10-17T01:40:11.150Z,0
2017-10-17T01:40:51.651Z,0
2017-10-17T01:41:32.178Z,0
2017-10-17T01:42:12.706Z,0
2017-10-17T01:42:53.207Z,0
2017-10-17T01:43:33.777Z,0
2017-10-17T01:44:14.400Z,0
2017-10-17T01:44:54.842Z,0
2017-10-17T01:45:35.371Z,0
2017-10-17T01:46:15.943Z,0
2017-10-17T01:46:56.481Z,0
2017-10-17T01:47:36.991Z,0
2017-10-17T01:48:17.548Z,0
2017-10-17T01:48:58.104Z,0
2017-10-17T01:49:38.587Z,0
2017-10-17T01:50:19.194Z,0
2017-10-17T01:50:59.798Z,0
2017-10-17T01:51:40.378Z,0
2017-10-17T01:52:20.917Z,0
2017-10-17T01:53:01.456Z,0
2017-10-17T01:53:42.000Z,0
2017-10-17T01:54:22.506Z,0
2017-10-17T01:55:03.028Z,0
2017-10-17T01:55:43.594Z,0
2017-10-17T01:56:24.152Z,0
2017-10-17T01:57:04.627Z,0
2017-10-17T01:57:45.224Z,0
2017-10-17T01:58:25.736Z,0
2017-10-17T01:59:06.323Z,0
2017-10-17T01:59:46.880Z,0
2017-10-17T02:00:27.424Z,0
2017-10-17T02:01:07.985Z,0
2017-10-17T02:01:48.505Z,0
2017-10-17T02:02:29.103Z,0
2017-10-17T02:03:09.654Z,0
2017-10-17T02:03:50.169Z,0
2017-10-17T02:04:30.871Z,0
2017-10-17T02:05:11.423Z,0
2017-10-17T02:05:51.980Z,0
2017-10-17T02:06:32.691Z,0
2017-10-17T02:07:13.176Z,0
2017-10-17T02:07:53.725Z,0
2017-10-17T02:08:34.311Z,0
2017-10-17T02:09:14.876Z,0
2017-10-17T02:09:55.439Z,0
2017-10-17T02:10:36.056Z,0
2017-10-17T02:11:16.592Z,0
2017-10-17T02:11:57.150Z,0
2017-10-17T02:12:37.716Z,0
2017-10-17T02:13:18.235Z,0
2017-10-17T02:13:58.802Z,0
2017-10-17T02:14:39.301Z,0
2017-10-17T02:15:19.847Z,0
2017-10-17T02:16:00.396Z,0
2017-10-17T02:16:40.940Z,0
2017-10-17T02:17:21.473Z,0
2017-10-17T02:18:02.026Z,0
2017-10-17T02:18:42.565Z,0
2017-10-17T02:19:23.080Z,0
2017-10-17T02:20:03.603Z,0
2017-10-17T02:20:44.150Z,0
2017-10-17T02:21:24.716Z,0
2017-10-17T02:22:05.295Z,0
2017-10-17T02:22:45.831Z,0
2017-10-17T02:23:26.359Z,0
2017-10-17T02:24:06.937Z,0
2017-10-17T02:24:47.441Z,0
2017-10-17T02:25:28.026Z,0
2017-10-17T02:26:08.571Z,0
2017-10-17T02:26:49.115Z,0
2017-10-17T02:27:29.658Z,0
2017-10-17T02:28:10.124Z,0
2017-10-17T02:28:50.703Z,0
2017-10-17T02:29:31.256Z,0
2017-10-17T02:30:11.772Z,0
2017-10-17T02:30:52.313Z,0
2017-10-17T02:31:32.851Z,0
2017-10-17T02:32:13.376Z,0
2017-10-17T02:32:53.977Z,0
2017-10-17T02:33:34.502Z,0
2017-10-17T02:34:15.045Z,0
2017-10-17T02:34:55.541Z,0
2017-10-17T02:35:36.070Z,0
2017-10-17T02:36:16.609Z,0
2017-10-17T02:36:57.200Z,0
2017-10-17T02:37:37.737Z,0
2017-10-17T02:38:18.252Z,0
2017-10-17T02:38:58.784Z,0
2017-10-17T02:39:39.368Z,0
2017-10-17T02:40:19.855Z,0
2017-10-17T02:41:00.406Z,0
2017-10-17T02:41:40.940Z,0
2017-10-17T02:42:21.502Z,0
2017-10-17T02:43:02.023Z,0
2017-10-17T02:43:42.578Z,0
2017-10-17T02:44:23.179Z,0
2017-10-17T02:45:03.652Z,0
2017-10-17T02:45:44.237Z,0
2017-10-17T02:46:24.769Z,0
2017-10-17T02:47:05.309Z,0
2017-10-17T02:47:45.864Z,0
2017-10-17T02:48:26.407Z,0
2017-10-17T02:49:06.962Z,0
2017-10-17T02:49:47.520Z,0
2017-10-17T02:50:28.049Z,0
2017-10-17T02:51:08.630Z,0
2017-10-17T02:51:49.162Z,0
2017-10-17T02:52:29.724Z,0
2017-10-17T02:53:10.268Z,0
2017-10-17T02:53:50.810Z,0
2017-10-17T02:54:31.397Z,0
2017-10-17T02:55:11.863Z,0
2017-10-17T02:55:52.439Z,0
2017-10-17T02:56:32.922Z,0
2017-10-17T02:57:13.481Z,0
2017-10-17T02:57:54.026Z,0
2017-10-17T02:58:34.595Z,0
2017-10-17T02:59:15.076Z,0
2017-10-17T02:59:55.594Z,0
2017-10-17T03:00:36.159Z,0
2017-10-17T03:01:16.783Z,0
2017-10-17T03:01:57.257Z,0
2017-10-17T03:02:37.803Z,0
2017-10-17T03:03:18.394Z,0
2017-10-17T03:03:58.929Z,0
2017-10-17T03:04:39.482Z,0
2017-10-17T03:05:20.019Z,0
2017-10-17T03:06:00.513Z,0
2017-10-17T03:06:41.015Z,0
2017-10-17T03:07:21.609Z,0
2017-10-17T03:08:02.092Z,0
2017-10-17T03:08:42.653Z,0
2017-10-17T03:09:23.200Z,0
2017-10-17T03:10:03.780Z,0
2017-10-17T03:10:44.268Z,0
2017-10-17T03:11:24.800Z,0
2017-10-17T03:12:05.311Z,0
2017-10-17T03:12:45.868Z,0
2017-10-17T03:13:26.393Z,0
2017-10-17T03:14:06.954Z,0
2017-10-17T03:14:47.488Z,0
2017-10-17T03:15:28.065Z,0
2017-10-17T03:16:08.664Z,0
2017-10-17T03:16:49.118Z,0
2017-10-17T03:17:29.610Z,0
2017-10-17T03:18:10.134Z,0
2017-10-17T03:18:50.680Z,0
2017-10-17T03:19:31.217Z,0
2017-10-17T03:20:11.787Z,0
2017-10-17T03:20:52.346Z,0
2017-10-17T03:21:32.890Z,0
2017-10-17T03:22:13.440Z,0
2017-10-17T03:22:53.968Z,0
2017-10-17T03:23:34.527Z,0
2017-10-17T03:24:15.070Z,0
2017-10-17T03:24:55.581Z,0
2017-10-17T03:25:36.109Z,0
2017-10-17T03:26:16.692Z,0
2017-10-17T03:26:57.240Z,0
2017-10-17T03:27:37.765Z,0
2017-10-17T03:28:18.363Z,0
2017-10-17T03:28:58.877Z,0
2017-10-17T03:29:39.399Z,0
2017-10-17T03:30:19.979Z,0
2017-10-17T03:31:00.516Z,0
2017-10-17T03:31:41.067Z,0
2017-10-17T03:32:21.613Z,0
2017-10-17T03:33:02.151Z,0
2017-10-17T03:33:42.693Z,0
2017-10-17T03:34:23.305Z,0
2017-10-17T03:35:03.809Z,0
2017-10-17T03:35:44.342Z,0
2017-10-17T03:36:25.008Z,0
2017-10-17T03:37:05.539Z,0
2017-10-17T03:37:46.110Z,0
2017-10-17T03:38:26.661Z,0
2017-10-17T03:39:07.189Z,0
2017-10-17T03:39:47.710Z,0
2017-10-17T03:40:28.257Z,0
2017-10-17T03:41:08.792Z,0
2017-10-17T03:41:49.360Z,0
2017-10-17T03:42:29.910Z,0
2017-10-17T03:43:10.465Z,0
2017-10-17T03:43:51.029Z,0
2017-10-17T03:44:31.539Z,0
2017-10-17T03:45:12.095Z,0
2017-10-17T03:45:52.634Z,0
2017-10-17T03:46:33.163Z,0
2017-10-17T03:47:13.723Z,0
2017-10-17T03:47:54.292Z,0
2017-10-17T03:48:34.811Z,0
2017-10-17T03:49:15.297Z,0
2017-10-17T03:49:55.857Z,0
2017-10-17T03:50:36.434Z,0
2017-10-17T03:51:16.911Z,0
2017-10-17T03:51:57.459Z,0
2017-10-17T03:52:38.059Z,0
2017-10-17T03:53:18.551Z,0
2017-10-17T03:53:59.107Z,0
2017-10-17T03:54:39.607Z,0
2017-10-17T03:55:20.141Z,0
2017-10-17T03:56:00.775Z,0
2017-10-17T03:56:41.330Z,0
2017-10-17T03:57:21.913Z,0
2017-10-17T03:58:02.453Z,0
2017-10-17T03:58:42.984Z,0
2017-10-17T03:59:23.541Z,0
2017-10-17T04:00:04.120Z,0
2017-10-17T04:00:44.675Z,0
2017-10-17T04:01:25.208Z,0
2017-10-17T04:02:05.748Z,0
2017-10-17T04:02:46.290Z,0
2017-10-17T04:03:26.822Z,0
2017-10-17T04:04:07.407Z,0
2017-10-17T04:04:47.898Z,0
2017-10-17T04:05:28.448Z,0
2017-10-17T04:06:08.988Z,0
2017-10-17T04:06:49.553Z,0
2017-10-17T04:07:30.130Z,0
2017-10-17T04:08:10.649Z,0
2017-10-17T04:08:51.173Z,0
2017-10-17T04:09:31.760Z,0
2017-10-17T04:10:12.301Z,0
2017-10-17T04:10:52.856Z,0
2017-10-17T04:11:33.421Z,0
2017-10-17T04:12:13.965Z,0
2017-10-17T04:12:54.497Z,0
2017-10-17T04:13:35.020Z,0
2017-10-17T04:14:15.556Z,0
2017-10-17T04:14:56.134Z,0
2017-10-17T04:15:36.820Z,0
2017-10-17T04:16:17.317Z,0
2017-10-17T04:16:57.818Z,0
2017-10-17T04:17:38.441Z,0
2017-10-17T04:18:18.940Z,0
2017-10-17T04:18:59.451Z,0
2017-10-17T04:19:40.000Z,0
2017-10-17T04:20:20.558Z,0
2017-10-17T04:21:01.074Z,0
2017-10-17T04:21:41.658Z,0
2017-10-17T04:22:22.168Z,0
2017-10-17T04:23:02.723Z,0
2017-10-17T04:23:43.248Z,0
2017-10-17T04:24:23.794Z,0
2017-10-17T04:25:04.287Z,0
2017-10-17T04:25:44.851Z,0
2017-10-17T04:26:25.391Z,0
2017-10-17T04:27:05.920Z,0
2017-10-17T04:27:46.436Z,0
2017-10-17T04:28:27.153Z,0
2017-10-17T04:29:07.619Z,0
2017-10-17T04:29:48.155Z,0
2017-10-17T04:30:28.699Z,0
2017-10-17T04:31:09.252Z,0
2017-10-17T04:31:49.795Z,0
2017-10-17T04:32:30.360Z,0
2017-10-17T04:33:10.930Z,0
2017-10-17T04:33:51.495Z,0
2017-10-17T04:34:32.058Z,0
2017-10-17T04:35:12.560Z,0
2017-10-17T04:35:53.102Z,0
2017-10-17T04:36:33.676Z,0
2017-10-17T04:37:14.249Z,0
2017-10-17T04:37:54.785Z,0
2017-10-17T04:38:35.286Z,0
2017-10-17T04:39:15.878Z,0
2017-10-17T04:39:56.396Z,0
2017-10-17T04:40:37.043Z,0
2017-10-17T04:41:17.619Z,0
2017-10-17T04:41:58.137Z,0
2017-10-17T04:42:38.707Z,0
2017-10-17T04:43:19.234Z,0
2017-10-17T04:43:59.791Z,0
2017-10-17T04:44:40.304Z,0
2017-10-17T04:45:20.836Z,0
2017-10-17T04:46:01.399Z,0
2017-10-17T04:46:41.946Z,0
2017-10-17T04:47:22.488Z,0
2017-10-17T04:48:03.289Z,0
2017-10-17T04:48:43.824Z,0
2017-10-17T04:49:24.381Z,0
2017-10-17T04:50:04.882Z,0
2017-10-17T04:50:45.459Z,0
2017-10-17T04:51:26.098Z,0
2017-10-17T04:52:06.519Z,0
2017-10-17T04:52:47.047Z,0
2017-10-17T04:53:27.628Z,0
2017-10-17T04:54:08.158Z,0
2017-10-17T04:54:48.727Z,0
2017-10-17T04:55:29.307Z,0
2017-10-17T04:56:09.907Z,0
2017-10-17T04:56:50.385Z,0
2017-10-17T04:57:30.959Z,0
2017-10-17T04:58:11.495Z,0
2017-10-17T04:58:52.040Z,0
2017-10-17T04:59:32.605Z,0
2017-10-17T05:00:13.161Z,0
2017-10-17T05:00:53.677Z,0
2017-10-17T05:01:34.437Z,0
2017-10-17T05:02:15.027Z,0
2017-10-17T05:02:55.577Z,0
2017-10-17T05:03:36.138Z,0
2017-10-17T05:04:17.260Z,0
2017-10-17T05:04:57.880Z,0
2017-10-17T05:05:38.412Z,0
2017-10-17T05:06:18.983Z,0
2017-10-17T05:06:59.493Z,0
2017-10-17T05:07:40.087Z,0
2017-10-17T05:08:20.640Z,0
2017-10-17T05:09:01.909Z,0
2017-10-17T05:09:41.682Z,0
2017-10-17T05:10:22.317Z,0
2017-10-17T05:11:02.828Z,0
2017-10-17T05:11:43.356Z,0
2017-10-17T05:12:23.977Z,0
2017-10-17T05:13:04.515Z,0
2017-10-17T05:13:45.078Z,0
2017-10-17T05:14:25.563Z,0
2017-10-17T05:15:06.147Z,0
2017-10-17T05:15:46.652Z,0
2017-10-17T05:16:27.209Z,0
2017-10-17T05:17:07.724Z,0
2017-10-17T05:17:48.304Z,0
2017-10-17T05:18:28.842Z,0
2017-10-17T05:19:09.382Z,0
2017-10-17T05:19:49.936Z,0
2017-10-17T05:20:30.471Z,0
2017-10-17T05:21:11.048Z,0
2017-10-17T05:21:51.585Z,0
2017-10-17T05:22:32.096Z,0
2017-10-17T05:23:12.667Z,0
2017-10-17T05:23:53.176Z,0
2017-10-17T05:24:33.712Z,0
2017-10-17T05:25:14.324Z,0
2017-10-17T05:25:54.844Z,0
2017-10-17T05:26:35.342Z,0
2017-10-17T05:27:15.898Z,0
2017-10-17T05:27:56.525Z,0
2017-10-17T05:28:37.018Z,0
2017-10-17T05:29:17.576Z,0
2017-10-17T05:29:58.101Z,0
2017-10-17T05:30:38.621Z,0
2017-10-17T05:31:19.186Z,0
2017-10-17T05:31:59.746Z,0
2017-10-17T05:32:40.345Z,0
2017-10-17T05:33:20.842Z,0
2017-10-17T05:34:01.351Z,0
2017-10-17T05:34:41.941Z,0
2017-10-17T05:35:22.476Z,0
2017-10-17T05:36:02.987Z,0
2017-10-17T05:36:43.599Z,0
2017-10-17T05:37:24.143Z,0
2017-10-17T05:38:04.686Z,0
2017-10-17T05:38:45.235Z,0
2017-10-17T05:39:25.750Z,0
2017-10-17T05:40:06.270Z,0
2017-10-17T05:40:46.838Z,0
2017-10-17T05:41:27.359Z,0
2017-10-17T05:42:07.953Z,0
2017-10-17T05:42:48.494Z,0
2017-10-17T05:43:29.103Z,0
2017-10-17T05:44:09.702Z,0
2017-10-17T05:44:50.182Z,0
2017-10-17T05:45:30.762Z,0
2017-10-17T05:46:11.325Z,0
2017-10-17T05:46:51.873Z,0
2017-10-17T05:47:32.426Z,0
2017-10-17T05:48:12.952Z,0
2017-10-17T05:48:53.509Z,0
2017-10-17T05:49:34.129Z,0
2017-10-17T05:50:14.712Z,0
2017-10-17T05:50:55.260Z,0
2017-10-17T05:51:35.779Z,0
2017-10-17T05:52:16.279Z,0
2017-10-17T05:52:56.785Z,0
2017-10-17T05:53:37.322Z,0
2017-10-17T05:54:17.876Z,0
2017-10-17T05:54:58.458Z,0
2017-10-17T05:55:38.975Z,0
2017-10-17T05:56:19.512Z,0
2017-10-17T05:57:00.493Z,0
2017-10-17T05:57:41.068Z,0
2017-10-17T05:58:21.600Z,0
2017-10-17T05:59:02.120Z,0
2017-10-17T05:59:42.616Z,5
2017-10-17T06:00:23.175Z,5
2017-10-17T06:01:03.740Z,5
2017-10-17T06:01:44.213Z,5
2017-10-17T06:02:24.794Z,5
2017-10-17T06:03:05.276Z,5
2017-10-17T06:03:45.841Z,5
2017-10-17T06:04:26.396Z,5
2017-10-17T06:05:06.954Z,5
2017-10-17T06:05:47.649Z,5
2017-10-17T06:06:28.333Z,5
2017-10-17T06:07:08.851Z,5
2017-10-17T06:07:49.495Z,5
2017-10-17T06:08:29.949Z,5
2017-10-17T06:09:10.457Z,5
2017-10-17T06:09:51.053Z,5
2017-10-17T06:10:31.674Z,5
2017-10-17T06:11:12.202Z,5
2017-10-17T06:11:52.742Z,5
2017-10-17T06:12:33.306Z,5
2017-10-17T06:13:13.823Z,5
2017-10-17T06:13:54.367Z,5
2017-10-17T06:14:34.951Z,5
2017-10-17T06:15:15.555Z,10
2017-10-17T06:15:56.062Z,10
2017-10-17T06:16:36.914Z,10
2017-10-17T06:17:17.271Z,10
2017-10-17T06:17:57.805Z,10
2017-10-17T06:18:38.385Z,10
2017-10-17T06:19:18.896Z,10
2017-10-17T06:19:59.459Z,10
2017-10-17T06:20:40.010Z,10
2017-10-17T06:21:20.527Z,10
2017-10-17T06:22:01.090Z,10
2017-10-17T06:22:41.590Z,10
2017-10-17T06:23:22.223Z,10
2017-10-17T06:24:02.764Z,10
2017-10-17T06:24:43.251Z,10
2017-10-17T06:25:23.796Z,10
2017-10-17T06:26:04.541Z,10
2017-10-17T06:26:44.905Z,15
2017-10-17T06:27:25.502Z,15
2017-10-17T06:28:06.061Z,15
2017-10-17T06:28:46.630Z,15
2017-10-17T06:29:27.294Z,15
2017-10-17T06:30:07.765Z,15
2017-10-17T06:30:48.308Z,15
2017-10-17T06:31:28.918Z,15
2017-10-17T06:32:09.433Z,15
2017-10-17T06:32:49.969Z,15
2017-10-17T06:33:30.495Z,15
2017-10-17T06:34:11.115Z,15
2017-10-17T06:34:51.607Z,15
2017-10-17T06:35:32.155Z,15
2017-10-17T06:36:12.801Z,15
2017-10-17T06:36:53.273Z,15
2017-10-17T06:37:33.920Z,15
2017-10-17T06:38:14.354Z,15
2017-10-17T06:38:54.957Z,15
2017-10-17T06:39:35.482Z,15
2017-10-17T06:40:16.072Z,15
2017-10-17T06:40:56.728Z,15
2017-10-17T06:41:37.159Z,15
2017-10-17T06:42:17.832Z,20
2017-10-17T06:42:58.348Z,20
2017-10-17T06:43:38.848Z,20
2017-10-17T06:44:19.390Z,20
2017-10-17T06:44:59.917Z,20
2017-10-17T06:45:40.459Z,20
2017-10-17T06:46:21.078Z,20
2017-10-17T06:47:01.596Z,20
2017-10-17T06:47:42.105Z,20
2017-10-17T06:48:22.650Z,20
2017-10-17T06:49:03.248Z,20
2017-10-17T06:49:43.718Z,20
2017-10-17T06:50:24.289Z,20
2017-10-17T06:51:04.796Z,20
2017-10-17T06:51:45.371Z,20
2017-10-17T06:52:25.923Z,20
2017-10-17T06:53:06.488Z,20
2017-10-17T06:53:47.033Z,20
2017-10-17T06:54:27.604Z,20
2017-10-17T06:55:08.132Z,20
2017-10-17T06:55:48.730Z,20
2017-10-17T06:56:29.297Z,20
2017-10-17T06:57:09.870Z,20
2017-10-17T06:57:50.373Z,20
2017-10-17T06:58:30.874Z,25
2017-10-17T06:59:11.452Z,25
2017-10-17T06:59:52.011Z,25
2017-10-17T07:00:32.521Z,25
2017-10-17T07:01:13.078Z,25
2017-10-17T07:01:53.624Z,25
2017-10-17T07:02:34.258Z,25
2017-10-17T07:03:14.798Z,25
2017-10-17T07:03:55.276Z,25
2017-10-17T07:04:35.837Z,25
2017-10-17T07:05:16.389Z,25
2017-10-17T07:05:56.901Z,25
2017-10-17T07:06:37.529Z,25
2017-10-17T07:07:18.057Z,25
2017-10-17T07:07:58.605Z,25
2017-10-17T07:08:39.196Z,25
2017-10-17T07:09:19.744Z,25
2017-10-17T07:10:00.261Z,25
2017-10-17T07:10:40.839Z,25
2017-10-17T07:11:21.368Z,25
2017-10-17T07:12:01.907Z,25
2017-10-17T07:12:42.473Z,25
2017-10-17T07:13:23.046Z,25
2017-10-17T07:14:03.509Z,25
2017-10-17T07:14:44.044Z,25
2017-10-17T07:15:24.598Z,25
2017-10-17T07:16:05.141Z,25
2017-10-17T07:16:45.700Z,25
2017-10-17T07:17:26.213Z,25
2017-10-17T07:18:06.830Z,25
2017-10-17T07:18:47.432Z,25
2017-10-17T07:19:27.979Z,25
2017-10-17T07:20:08.509Z,25
2017-10-17T07:20:49.132Z,25
2017-10-17T07:21:29.618Z,25
2017-10-17T07:22:10.153Z,25
2017-10-17T07:22:50.715Z,25
2017-10-17T07:23:31.324Z,25
2017-10-17T07:24:11.815Z,25
2017-10-17T07:24:52.468Z,25
2017-10-17T07:25:33.095Z,25
2017-10-17T07:26:13.596Z,25
2017-10-17T07:26:54.111Z,25
2017-10-17T07:27:34.688Z,25
2017-10-17T07:28:15.281Z,25
2017-10-17T07:28:55.825Z,25
2017-10-17T07:29:36.372Z,25
2017-10-17T07:30:16.895Z,25
2017-10-17T07:30:58.112Z,25
2017-10-17T07:31:38.602Z,25
2017-10-17T07:32:19.145Z,25
2017-10-17T07:32:59.732Z,25
2017-10-17T07:33:40.523Z,25
2017-10-17T07:34:21.076Z,25
2017-10-17T07:35:01.686Z,25
2017-10-17T07:35:42.372Z,25
2017-10-17T07:36:22.725Z,25
2017-10-17T07:37:03.254Z,25
2017-10-17T07:37:43.788Z,25
2017-10-17T07:38:24.325Z,25
2017-10-17T07:39:04.900Z,25
2017-10-17T07:39:45.400Z,25
2017-10-17T07:40:25.965Z,25
2017-10-17T07:41:06.560Z,25
2017-10-17T07:41:47.075Z,25
2017-10-17T07:42:27.644Z,25
2017-10-17T07:43:08.195Z,30
2017-10-17T07:43:48.713Z,30
2017-10-17T07:44:29.283Z,30
2017-10-17T07:45:09.845Z,30
2017-10-17T07:45:50.392Z,25
2017-10-17T07:46:31.029Z,30
2017-10-17T07:47:11.507Z,25
2017-10-17T07:47:52.065Z,30
2017-10-17T07:48:32.596Z,30
2017-10-17T07:49:13.168Z,30
2017-10-17T07:49:53.802Z,25
2017-10-17T07:50:34.323Z,30
2017-10-17T07:51:14.813Z,25
2017-10-17T07:51:55.396Z,30
2017-10-17T07:52:35.885Z,30
2017-10-17T07:53:16.481Z,30
2017-10-17T07:53:56.983Z,30
2017-10-17T07:54:37.650Z,30
2017-10-17T07:55:18.095Z,30
2017-10-17T07:55:58.632Z,30
2017-10-17T07:56:39.191Z,30
2017-10-17T07:57:19.806Z,30
2017-10-17T07:58:00.533Z,30
2017-10-17T07:58:41.020Z,30
2017-10-17T07:59:21.622Z,30
2017-10-17T08:00:02.526Z,30
2017-10-17T08:00:43.037Z,30
2017-10-17T08:01:23.571Z,30
2017-10-17T08:02:04.134Z,30
2017-10-17T08:02:44.658Z,30
2017-10-17T08:03:25.305Z,30
2017-10-17T08:04:05.848Z,30
2017-10-17T08:04:46.511Z,30
2017-10-17T08:05:27.065Z,30
2017-10-17T08:06:07.664Z,30
2017-10-17T08:06:48.235Z,30
2017-10-17T08:07:28.756Z,30
2017-10-17T08:08:09.275Z,30
2017-10-17T08:08:50.046Z,30
2017-10-17T08:09:30.633Z,30
2017-10-17T08:10:11.119Z,30
2017-10-17T08:10:51.811Z,30
2017-10-17T08:11:32.347Z,30
2017-10-17T08:12:12.872Z,30
2017-10-17T08:12:53.407Z,30
2017-10-17T08:13:33.950Z,30
2017-10-17T08:14:15.238Z,30
2017-10-17T08:14:55.883Z,30
2017-10-17T08:15:36.440Z,30
2017-10-17T08:16:16.959Z,30
2017-10-17T08:16:58.067Z,30
2017-10-17T08:17:38.338Z,30
2017-10-17T08:18:18.897Z,30
2017-10-17T08:18:59.490Z,30
2017-10-17T08:19:40.053Z,30
2017-10-17T08:20:20.629Z,30
2017-10-17T08:21:01.235Z,30
2017-10-17T08:21:41.712Z,30
2017-10-17T08:22:22.253Z,30
2017-10-17T08:23:02.835Z,30
2017-10-17T08:23:43.390Z,30
2017-10-17T08:24:23.927Z,30
2017-10-17T08:25:04.475Z,30
2017-10-17T08:25:45.061Z,30
2017-10-17T08:26:25.620Z,30
2017-10-17T08:27:06.172Z,30
2017-10-17T08:27:46.714Z,30
2017-10-17T08:28:27.306Z,30
2017-10-17T08:29:07.825Z,30
2017-10-17T08:29:48.374Z,30
2017-10-17T08:30:28.945Z,30
2017-10-17T08:31:09.533Z,30
2017-10-17T08:31:49.995Z,30
2017-10-17T08:32:30.582Z,30
2017-10-17T08:33:11.147Z,30
2017-10-17T08:33:51.736Z,30
2017-10-17T08:34:32.271Z,30
2017-10-17T08:35:12.835Z,30
2017-10-17T08:35:53.343Z,30
2017-10-17T08:36:33.894Z,30
2017-10-17T08:37:14.445Z,30
2017-10-17T08:37:54.953Z,30
2017-10-17T08:38:35.552Z,30
2017-10-17T08:39:16.104Z,30
2017-10-17T08:39:56.690Z,30
2017-10-17T08:40:37.171Z,30
2017-10-17T08:41:17.697Z,30
2017-10-17T08:41:58.450Z,30
2017-10-17T08:42:38.953Z,30
2017-10-17T08:43:19.526Z,30
2017-10-17T08:44:00.070Z,30
2017-10-17T08:44:40.671Z,35
2017-10-17T08:45:21.399Z,30
2017-10-17T08:46:02.021Z,30
2017-10-17T08:46:42.553Z,35
2017-10-17T08:47:23.087Z,35
2017-10-17T08:48:03.673Z,35
2017-10-17T08:48:44.344Z,35
2017-10-17T08:49:24.750Z,35
2017-10-17T08:50:05.344Z,35
2017-10-17T08:50:45.917Z,35
2017-10-17T08:51:26.468Z,35
2017-10-17T08:52:07.072Z,35
2017-10-17T08:52:47.565Z,35
2017-10-17T08:53:28.111Z,35
2017-10-17T08:54:08.660Z,35
2017-10-17T08:54:49.193Z,35
2017-10-17T08:55:29.740Z,35
2017-10-17T08:56:10.251Z,35
2017-10-17T08:56:50.797Z,35
2017-10-17T08:57:31.359Z,35
2017-10-17T08:58:11.886Z,35
2017-10-17T08:58:52.477Z,35
2017-10-17T08:59:33.056Z,35
2017-10-17T09:00:13.589Z,35
2017-10-17T09:00:54.280Z,35
2017-10-17T09:01:34.684Z,35
2017-10-17T09:02:15.268Z,35
2017-10-17T09:02:55.778Z,35
2017-10-17T09:03:36.417Z,35
2017-10-17T09:04:16.933Z,35
2017-10-17T09:04:57.470Z,35
2017-10-17T09:05:37.995Z,35
2017-10-17T09:06:18.576Z,35
2017-10-17T09:06:59.639Z,35
2017-10-17T09:07:40.178Z,35
2017-10-17T09:08:20.805Z,35
2017-10-17T09:09:01.328Z,35
2017-10-17T09:09:41.882Z,35
2017-10-17T09:10:22.435Z,35
2017-10-17T09:11:03.312Z,35
2017-10-17T09:11:43.982Z,35
2017-10-17T09:12:24.868Z,35
2017-10-17T09:13:05.390Z,35
2017-10-17T09:13:46.532Z,40
2017-10-17T09:14:26.652Z,40
2017-10-17T09:15:07.129Z,35
2017-10-17T09:15:48.083Z,35
2017-10-17T09:16:28.717Z,40
2017-10-17T09:17:09.395Z,40
2017-10-17T09:17:50.021Z,40
2017-10-17T09:18:30.584Z,40
2017-10-17T09:19:11.191Z,40
2017-10-17T09:19:51.742Z,40
2017-10-17T09:20:32.301Z,40
2017-10-17T09:21:13.015Z,40
2017-10-17T09:21:53.433Z,40
2017-10-17T09:22:34.008Z,40
2017-10-17T09:23:14.579Z,40
2017-10-17T09:23:55.164Z,40
2017-10-17T09:24:35.653Z,40
2017-10-17T09:25:16.956Z,40
2017-10-17T09:25:59.892Z,40
2017-10-17T09:26:40.625Z,40
2017-10-17T09:27:21.200Z,40
2017-10-17T09:28:01.747Z,40
2017-10-17T09:28:43.966Z,40
2017-10-17T09:29:24.506Z,40
2017-10-17T09:30:05.032Z,40
2017-10-17T09:30:45.638Z,40
2017-10-17T09:31:26.126Z,40
2017-10-17T09:32:06.659Z,40
2017-10-17T09:32:47.211Z,40
2017-10-17T09:33:27.773Z,40
2017-10-17T09:34:08.356Z,40
2017-10-17T09:34:48.925Z,40
2017-10-17T09:35:29.482Z,40
2017-10-17T09:36:10.043Z,40
2017-10-17T09:36:50.701Z,40
2017-10-17T09:37:31.222Z,45
2017-10-17T09:38:11.735Z,40
2017-10-17T09:38:52.356Z,40
2017-10-17T09:39:32.936Z,45
2017-10-17T09:40:13.470Z,45
2017-10-17T09:40:54.025Z,45
2017-10-17T09:41:34.593Z,45
2017-10-17T09:42:15.121Z,45
2017-10-17T09:42:55.656Z,45
2017-10-17T09:43:36.245Z,45
2017-10-17T09:44:16.750Z,45
2017-10-17T09:44:57.311Z,45
2017-10-17T09:45:37.849Z,45
2017-10-17T09:46:18.406Z,45
2017-10-17T09:46:58.976Z,45
2017-10-17T09:47:39.555Z,45
2017-10-17T09:48:20.056Z,45
2017-10-17T09:49:00.624Z,45
2017-10-17T09:49:41.152Z,45
2017-10-17T09:50:21.728Z,45
2017-10-17T09:51:02.257Z,45
2017-10-17T09:51:42.781Z,45